createdAt,value
2018-03-21T00:00:04.681Z,1.65
2018-03-21T00:01:04.705Z,1.55
2018-03-21T00:02:04.733Z,1.54
2018-03-21T00:03:04.755Z,1.59
2018-03-21T00:04:04.780Z,1.60
2018-03-21T00:05:04.804Z,1.52
2018-03-21T00:06:04.830Z,1.52
2018-03-21T00:07:04.883Z,1.58
2018-03-21T00:08:04.889Z,1.55
2018-03-21T00:09:04.911Z,1.55
2018-03-21T00:10:04.932Z,1.51
2018-03-21T00:11:04.956Z,1.45
2018-03-21T00:12:04.983Z,1.47
2018-03-21T00:13:05.008Z,1.51
2018-03-21T00:14:05.033Z,1.48
2018-03-21T00:15:05.057Z,1.50
2018-03-21T00:16:05.084Z,1.48
2018-03-21T00:17:05.110Z,1.58
2018-03-21T00:18:05.135Z,1.54
2018-03-21T00:19:05.183Z,1.48
2018-03-21T00:20:05.187Z,1.45
2018-03-21T00:21:05.220Z,1.42
2018-03-21T00:22:05.235Z,1.36
2018-03-21T00:23:05.261Z,1.34
2018-03-21T00:24:05.291Z,1.34
2018-03-21T00:25:05.311Z,1.37
2018-03-21T00:26:05.336Z,1.29
2018-03-21T00:27:05.361Z,1.30
2018-03-21T00:28:05.388Z,1.24
2018-03-21T00:29:05.413Z,1.18
2018-03-21T00:30:05.436Z,1.23
2018-03-21T00:31:05.461Z,1.16
2018-03-21T00:32:05.488Z,1.15
2018-03-21T00:33:05.512Z,1.11
2018-03-21T00:34:05.540Z,1.15
2018-03-21T00:35:05.571Z,1.09
2018-03-21T00:36:05.589Z,1.11
2018-03-21T00:37:05.614Z,1.15
2018-03-21T00:38:05.639Z,1.04
2018-03-21T00:39:05.664Z,1.08
2018-03-21T00:40:05.688Z,1.12
2018-03-21T00:41:05.714Z,1.05
2018-03-21T00:42:05.736Z,0.98
2018-03-21T00:43:05.768Z,1.05
2018-03-21T00:44:05.791Z,1.04
2018-03-21T00:45:05.814Z,1.08
2018-03-21T00:46:05.839Z,1.04
2018-03-21T00:47:05.872Z,1.11
2018-03-21T00:48:05.889Z,1.09
2018-03-21T00:49:05.912Z,1.00
2018-03-21T00:50:05.937Z,1.04
2018-03-21T00:51:05.967Z,1.00
2018-03-21T00:52:05.987Z,0.96
2018-03-21T00:53:06.013Z,0.96
2018-03-21T00:54:06.044Z,1.02
2018-03-21T00:55:06.062Z,0.94
2018-03-21T00:56:06.085Z,0.93
2018-03-21T00:57:06.111Z,0.90
2018-03-21T00:58:06.136Z,0.78
2018-03-21T00:59:06.162Z,0.78
2018-03-21T01:00:06.188Z,0.76
2018-03-21T01:01:06.210Z,0.72
2018-03-21T01:02:06.235Z,0.62
2018-03-21T01:03:06.261Z,0.66
2018-03-21T01:04:06.285Z,0.57
2018-03-21T01:05:06.310Z,0.53
2018-03-21T01:06:06.335Z,0.51
2018-03-21T01:07:06.359Z,0.47
2018-03-21T01:08:06.384Z,0.39
2018-03-21T01:09:06.410Z,0.39
2018-03-21T01:10:06.433Z,0.32
2018-03-21T01:11:06.459Z,0.21
2018-03-21T01:12:06.484Z,0.14
2018-03-21T01:13:06.507Z,0.14
2018-03-21T01:14:06.533Z,0.08
2018-03-21T01:15:06.560Z,0.02
2018-03-21T01:16:06.583Z,-0.03
2018-03-21T01:17:06.609Z,-0.07
2018-03-21T01:18:06.633Z,-0.07
2018-03-21T01:19:06.656Z,-0.07
2018-03-21T01:20:06.681Z,-0.16
2018-03-21T01:21:06.706Z,-0.16
2018-03-21T01:22:06.732Z,-0.14
2018-03-21T01:23:06.756Z,-0.15
2018-03-21T01:24:06.781Z,-0.23
2018-03-21T01:25:06.807Z,-0.23
2018-03-21T01:26:06.831Z,-0.22
2018-03-21T01:27:06.859Z,-0.28
2018-03-21T01:28:06.881Z,-0.19
2018-03-21T01:29:06.905Z,-0.23
2018-03-21T01:30:06.929Z,-0.34
2018-03-21T01:31:06.955Z,-0.34
2018-03-21T01:32:06.980Z,-0.34
2018-03-21T01:33:07.005Z,-0.31
2018-03-21T01:34:07.029Z,-0.46
2018-03-21T01:35:07.053Z,-0.55
2018-03-21T01:36:07.079Z,-0.57
2018-03-21T01:37:07.106Z,-0.62
2018-03-21T01:38:07.127Z,-0.64
2018-03-21T01:39:07.155Z,-0.62
2018-03-21T01:40:07.178Z,-0.65
2018-03-21T01:41:07.202Z,-0.69
2018-03-21T01:42:07.225Z,-0.72
2018-03-21T01:43:07.251Z,-0.61
2018-03-21T01:44:07.276Z,-0.76
2018-03-21T01:45:07.300Z,-0.70
2018-03-21T01:46:07.326Z,-0.73
2018-03-21T01:47:07.393Z,-0.76
2018-03-21T01:48:07.376Z,-0.76
2018-03-21T01:49:07.400Z,-0.76
2018-03-21T01:50:07.422Z,-0.72
2018-03-21T01:51:07.447Z,-0.72
2018-03-21T01:52:07.472Z,-0.79
2018-03-21T01:53:07.498Z,-0.72
2018-03-21T01:54:07.521Z,-0.75
2018-03-21T01:55:07.544Z,-0.78
2018-03-21T01:56:07.570Z,-0.67
2018-03-21T01:57:07.594Z,-0.67
2018-03-21T01:58:07.620Z,-0.54
2018-03-21T01:59:07.644Z,-0.61
2018-03-21T02:00:07.668Z,-0.58
2018-03-21T02:01:07.693Z,-0.62
2018-03-21T02:02:07.716Z,-0.61
2018-03-21T02:03:07.743Z,-0.52
2018-03-21T02:04:07.767Z,-0.61
2018-03-21T02:05:07.790Z,-0.65
2018-03-21T02:06:07.813Z,-0.61
2018-03-21T02:07:07.838Z,-0.70
2018-03-21T02:08:07.863Z,-0.62
2018-03-21T02:09:07.887Z,-0.61
2018-03-21T02:10:07.911Z,-0.61
2018-03-21T02:11:07.941Z,-0.60
2018-03-21T02:12:07.964Z,-0.62
2018-03-21T02:13:07.986Z,-0.67
2018-03-21T02:14:08.009Z,-0.69
2018-03-21T02:15:08.036Z,-0.69
2018-03-21T02:16:08.058Z,-0.69
2018-03-21T02:17:08.083Z,-0.78
2018-03-21T02:18:08.106Z,-0.76
2018-03-21T02:19:08.131Z,-0.79
2018-03-21T02:20:08.157Z,-0.80
2018-03-21T02:21:08.180Z,-0.95
2018-03-21T02:22:08.203Z,-0.91
2018-03-21T02:23:08.227Z,-1.02
2018-03-21T02:24:08.252Z,-0.95
2018-03-21T02:25:08.277Z,-0.99
2018-03-21T02:26:08.300Z,-0.95
2018-03-21T02:27:08.329Z,-0.99
2018-03-21T02:28:08.348Z,-1.10
2018-03-21T02:29:08.375Z,-1.05
2018-03-21T02:30:08.398Z,-1.09
2018-03-21T02:31:08.423Z,-1.16
2018-03-21T02:32:08.447Z,-1.19
2018-03-21T02:33:08.473Z,-1.20
2018-03-21T02:34:08.494Z,-1.23
2018-03-21T02:35:08.519Z,-1.25
2018-03-21T02:36:08.545Z,-1.15
2018-03-21T02:37:08.568Z,-1.25
2018-03-21T02:38:08.593Z,-1.28
2018-03-21T02:39:08.618Z,-1.34
2018-03-21T02:40:08.640Z,-1.43
2018-03-21T02:41:08.664Z,-1.45
2018-03-21T02:42:08.687Z,-1.46
2018-03-21T02:43:08.712Z,-1.48
2018-03-21T02:44:08.736Z,-1.52
2018-03-21T02:45:08.760Z,-1.61
2018-03-21T02:46:08.784Z,-1.72
2018-03-21T02:47:08.807Z,-1.67
2018-03-21T02:48:08.837Z,-1.74
2018-03-21T02:49:08.856Z,-1.74
2018-03-21T02:50:08.878Z,-1.74
2018-03-21T02:51:08.903Z,-1.72
2018-03-21T02:52:08.930Z,-1.69
2018-03-21T02:53:08.952Z,-1.59
2018-03-21T02:54:08.979Z,-1.67
2018-03-21T02:55:09.000Z,-1.72
2018-03-21T02:56:09.025Z,-1.76
2018-03-21T02:57:09.048Z,-1.79
2018-03-21T02:58:09.072Z,-1.88
2018-03-21T02:59:09.094Z,-1.92
2018-03-21T03:00:09.124Z,-1.98
2018-03-21T03:01:09.143Z,-1.97
2018-03-21T03:02:09.176Z,-2.06
2018-03-21T03:03:09.190Z,-2.03
2018-03-21T03:04:09.214Z,-2.00
2018-03-21T03:05:09.239Z,-1.97
2018-03-21T03:06:09.263Z,-2.08
2018-03-21T03:07:09.285Z,-2.06
2018-03-21T03:08:09.310Z,-2.15
2018-03-21T03:09:09.333Z,-2.06
2018-03-21T03:10:09.356Z,-2.09
2018-03-21T03:11:09.380Z,-2.06
2018-03-21T03:12:09.404Z,-2.13
2018-03-21T03:13:09.427Z,-2.13
2018-03-21T03:14:09.457Z,-2.16
2018-03-21T03:15:09.475Z,-2.08
2018-03-21T03:16:09.500Z,-2.09
2018-03-21T03:17:09.524Z,-2.16
2018-03-21T03:18:09.546Z,-2.21
2018-03-21T03:19:09.570Z,-2.21
2018-03-21T03:20:09.595Z,-2.27
2018-03-21T03:21:09.619Z,-2.30
2018-03-21T03:22:09.640Z,-2.30
2018-03-21T03:23:09.664Z,-2.39
2018-03-21T03:24:09.692Z,-2.35
2018-03-21T03:25:09.713Z,-2.35
2018-03-21T03:26:09.736Z,-2.45
2018-03-21T03:27:09.760Z,-2.46
2018-03-21T03:28:09.783Z,-2.43
2018-03-21T03:29:09.807Z,-2.39
2018-03-21T03:30:09.834Z,-2.40
2018-03-21T03:31:09.856Z,-2.34
2018-03-21T03:32:09.878Z,-2.39
2018-03-21T03:33:09.903Z,-2.40
2018-03-21T03:34:09.925Z,-2.43
2018-03-21T03:35:09.948Z,-2.43
2018-03-21T03:36:09.971Z,-2.45
2018-03-21T03:37:09.994Z,-2.43
2018-03-21T03:38:10.019Z,-2.46
2018-03-21T03:39:10.042Z,-2.49
2018-03-21T03:40:10.066Z,-2.46
2018-03-21T03:41:10.090Z,-2.43
2018-03-21T03:42:10.113Z,-2.48
2018-03-21T03:43:10.137Z,-2.53
2018-03-21T03:44:10.160Z,-2.58
2018-03-21T03:45:10.184Z,-2.63
2018-03-21T03:46:10.207Z,-2.55
2018-03-21T03:47:10.230Z,-2.49
2018-03-21T03:48:10.254Z,-2.61
2018-03-21T03:49:10.277Z,-2.68
2018-03-21T03:50:10.300Z,-2.64
2018-03-21T03:51:10.324Z,-2.78
2018-03-21T03:52:10.348Z,-2.73
2018-03-21T03:53:10.373Z,-2.66
2018-03-21T03:54:10.401Z,-2.73
2018-03-21T03:55:10.418Z,-2.68
2018-03-21T03:56:10.440Z,-2.68
2018-03-21T03:57:10.464Z,-2.73
2018-03-21T03:58:10.487Z,-2.78
2018-03-21T03:59:10.511Z,-2.84
2018-03-21T04:00:10.535Z,-2.81
2018-03-21T04:01:10.556Z,-2.85
2018-03-21T04:02:10.581Z,-2.97
2018-03-21T04:03:10.604Z,-2.94
2018-03-21T04:04:10.628Z,-2.88
2018-03-21T04:05:10.651Z,-2.92
2018-03-21T04:06:10.674Z,-2.85
2018-03-21T04:07:10.755Z,-2.89
2018-03-21T04:08:10.725Z,-2.85
2018-03-21T04:09:10.745Z,-2.86
2018-03-21T04:10:10.767Z,-2.91
2018-03-21T04:11:10.790Z,-2.88
2018-03-21T04:12:10.814Z,-2.89
2018-03-21T04:13:10.839Z,-2.94
2018-03-21T04:14:10.859Z,-2.92
2018-03-21T04:15:10.882Z,-2.88
2018-03-21T04:16:10.907Z,-2.86
2018-03-21T04:17:10.931Z,-2.81
2018-03-21T04:18:10.952Z,-2.73
2018-03-21T04:19:10.975Z,-2.60
2018-03-21T04:20:10.999Z,-2.60
2018-03-21T04:21:11.023Z,-2.55
2018-03-21T04:22:11.046Z,-2.61
2018-03-21T04:23:11.073Z,-2.48
2018-03-21T04:24:11.092Z,-2.50
2018-03-21T04:25:11.115Z,-2.66
2018-03-21T04:26:11.139Z,-2.64
2018-03-21T04:27:11.161Z,-2.71
2018-03-21T04:28:11.184Z,-2.67
2018-03-21T04:29:11.208Z,-2.73
2018-03-21T04:30:11.230Z,-2.67
2018-03-21T04:31:11.254Z,-2.77
2018-03-21T04:32:11.276Z,-2.78
2018-03-21T04:33:11.300Z,-2.78
2018-03-21T04:34:11.323Z,-2.94
2018-03-21T04:35:11.346Z,-2.94
2018-03-21T04:36:11.369Z,-2.85
2018-03-21T04:37:11.392Z,-2.92
2018-03-21T04:38:11.414Z,-2.97
2018-03-21T04:39:11.438Z,-3.00
2018-03-21T04:40:11.460Z,-2.99
2018-03-21T04:41:11.485Z,-3.00
2018-03-21T04:42:11.506Z,-3.06
2018-03-21T04:43:11.530Z,-3.06
2018-03-21T04:44:11.553Z,-3.00
2018-03-21T04:45:11.577Z,-3.05
2018-03-21T04:46:11.599Z,-2.99
2018-03-21T04:47:11.623Z,-2.89
2018-03-21T04:48:11.646Z,-2.91
2018-03-21T04:49:11.668Z,-2.94
2018-03-21T04:50:11.690Z,-2.81
2018-03-21T04:51:11.714Z,-2.77
2018-03-21T04:52:11.737Z,-2.85
2018-03-21T04:53:11.759Z,-2.71
2018-03-21T04:54:11.781Z,-2.74
2018-03-21T04:55:11.806Z,-2.88
2018-03-21T04:56:11.828Z,-2.78
2018-03-21T04:57:11.851Z,-2.89
2018-03-21T04:58:11.875Z,-2.89
2018-03-21T04:59:11.897Z,-2.89
2018-03-21T05:00:11.923Z,-2.92
2018-03-21T05:01:11.943Z,-2.89
2018-03-21T05:02:11.964Z,-2.92
2018-03-21T05:03:11.988Z,-2.73
2018-03-21T05:04:12.011Z,-2.70
2018-03-21T05:05:12.034Z,-2.58
2018-03-21T05:06:12.056Z,-2.49
2018-03-21T05:07:12.079Z,-2.70
2018-03-21T05:08:12.101Z,-2.53
2018-03-21T05:09:12.125Z,-2.61
2018-03-21T05:10:12.147Z,-2.74
2018-03-21T05:11:12.172Z,-2.82
2018-03-21T05:12:12.193Z,-2.94
2018-03-21T05:13:12.216Z,-3.02
2018-03-21T05:14:12.241Z,-2.96
2018-03-21T05:15:12.261Z,-3.05
2018-03-21T05:16:12.284Z,-3.02
2018-03-21T05:17:12.307Z,-3.17
2018-03-21T05:18:12.329Z,-3.23
2018-03-21T05:19:12.352Z,-3.30
2018-03-21T05:20:12.375Z,-3.33
2018-03-21T05:21:12.398Z,-3.33
2018-03-21T05:22:12.420Z,-3.27
2018-03-21T05:23:12.443Z,-3.31
2018-03-21T05:24:12.466Z,-3.33
2018-03-21T05:25:12.489Z,-3.33
2018-03-21T05:26:12.510Z,-3.39
2018-03-21T05:27:12.537Z,-3.38
2018-03-21T05:28:12.557Z,-3.45
2018-03-21T05:29:12.580Z,-3.53
2018-03-21T05:30:12.602Z,-3.49
2018-03-21T05:31:12.625Z,-3.45
2018-03-21T05:32:12.648Z,-3.54
2018-03-21T05:33:12.696Z,-3.53
2018-03-21T05:34:12.691Z,-3.52
2018-03-21T05:35:12.716Z,-3.41
2018-03-21T05:36:12.739Z,-3.45
2018-03-21T05:37:12.760Z,-3.43
2018-03-21T05:38:12.783Z,-3.38
2018-03-21T05:39:12.806Z,-3.41
2018-03-21T05:40:12.829Z,-3.30
2018-03-21T05:41:12.851Z,-3.41
2018-03-21T05:42:12.874Z,-3.33
2018-03-21T05:43:12.900Z,-3.41
2018-03-21T05:44:12.921Z,-3.30
2018-03-21T05:45:12.944Z,-3.33
2018-03-21T05:46:12.964Z,-3.35
2018-03-21T05:47:12.988Z,-3.30
2018-03-21T05:48:13.010Z,-3.30
2018-03-21T05:49:13.032Z,-3.28
2018-03-21T05:50:13.055Z,-3.27
2018-03-21T05:51:13.078Z,-3.30
2018-03-21T05:52:13.100Z,-3.38
2018-03-21T05:53:13.124Z,-3.36
2018-03-21T05:54:13.146Z,-3.31
2018-03-21T05:55:13.168Z,-3.31
2018-03-21T05:56:13.191Z,-3.27
2018-03-21T05:57:13.223Z,-3.28
2018-03-21T05:58:13.239Z,-3.15
2018-03-21T05:59:13.269Z,-3.18
2018-03-21T06:00:13.281Z,-3.10
2018-03-21T06:01:13.313Z,-2.86
2018-03-21T06:02:13.328Z,-2.82
2018-03-21T06:03:13.351Z,-2.70
2018-03-21T06:04:13.386Z,-2.67
2018-03-21T06:05:13.396Z,-2.60
2018-03-21T06:06:13.418Z,-2.52
2018-03-21T06:07:13.441Z,-2.40
2018-03-21T06:08:13.464Z,-2.45
2018-03-21T06:09:13.486Z,-2.39
2018-03-21T06:10:13.511Z,-2.43
2018-03-21T06:11:13.533Z,-2.39
2018-03-21T06:12:13.554Z,-2.48
2018-03-21T06:13:13.579Z,-2.49
2018-03-21T06:14:13.599Z,-2.50
2018-03-21T06:15:13.624Z,-2.52
2018-03-21T06:16:13.647Z,-2.48
2018-03-21T06:17:13.671Z,-2.45
2018-03-21T06:18:13.699Z,-2.48
2018-03-21T06:19:13.723Z,-2.58
2018-03-21T06:20:13.752Z,-2.48
2018-03-21T06:21:13.761Z,-2.45
2018-03-21T06:22:13.784Z,-2.45
2018-03-21T06:23:13.820Z,-2.48
2018-03-21T06:24:13.831Z,-2.48
2018-03-21T06:25:13.855Z,-2.46
2018-03-21T06:26:13.876Z,-2.42
2018-03-21T06:27:13.900Z,-2.45
2018-03-21T06:28:13.923Z,-2.37
2018-03-21T06:29:13.946Z,-2.34
2018-03-21T06:30:13.968Z,-2.29
2018-03-21T06:31:13.994Z,-2.34
2018-03-21T06:32:14.016Z,-2.27
2018-03-21T06:33:14.039Z,-2.27
2018-03-21T06:34:14.061Z,-2.32
2018-03-21T06:35:14.085Z,-2.15
2018-03-21T06:36:14.109Z,-2.24
2018-03-21T06:37:14.132Z,-2.24
2018-03-21T06:38:14.154Z,-2.10
2018-03-21T06:39:14.178Z,-2.08
2018-03-21T06:40:14.202Z,-2.00
2018-03-21T06:41:14.225Z,-2.05
2018-03-21T06:42:14.248Z,-1.90
2018-03-21T06:43:14.272Z,-1.62
2018-03-21T06:44:14.296Z,-1.23
2018-03-21T06:45:14.319Z,-1.05
2018-03-21T06:46:14.342Z,-0.99
2018-03-21T06:47:14.365Z,-0.80
2018-03-21T06:48:14.389Z,-0.69
2018-03-21T06:49:14.413Z,-0.60
2018-03-21T06:50:14.436Z,-0.54
2018-03-21T06:51:14.460Z,-0.47
2018-03-21T06:52:14.484Z,-0.33
2018-03-21T06:53:14.508Z,-0.21
2018-03-21T06:54:14.530Z,-0.16
2018-03-21T06:55:14.555Z,-0.11
2018-03-21T06:56:14.584Z,-0.05
2018-03-21T06:57:14.602Z,0.04
2018-03-21T06:58:14.626Z,0.07
2018-03-21T06:59:14.650Z,0.08
2018-03-21T07:00:14.675Z,0.08
2018-03-21T07:01:14.700Z,0.13
2018-03-21T07:02:14.744Z,0.20
2018-03-21T07:03:14.746Z,0.21
2018-03-21T07:04:14.769Z,0.32
2018-03-21T07:05:14.795Z,0.26
2018-03-21T07:06:14.818Z,0.26
2018-03-21T07:07:14.843Z,0.35
2018-03-21T07:08:14.868Z,0.39
2018-03-21T07:09:14.890Z,0.47
2018-03-21T07:10:14.919Z,0.61
2018-03-21T07:11:14.939Z,0.57
2018-03-21T07:12:14.964Z,0.70
2018-03-21T07:13:14.989Z,0.70
2018-03-21T07:14:15.016Z,0.80
2018-03-21T07:15:15.036Z,0.83
2018-03-21T07:16:15.060Z,0.97
2018-03-21T07:17:15.085Z,1.06
2018-03-21T07:18:15.109Z,1.29
2018-03-21T07:19:15.135Z,1.34
2018-03-21T07:20:15.159Z,1.37
2018-03-21T07:21:15.184Z,1.41
2018-03-21T07:22:15.205Z,1.29
2018-03-21T07:23:15.231Z,1.37
2018-03-21T07:24:15.257Z,1.34
2018-03-21T07:25:15.289Z,1.36
2018-03-21T07:26:15.306Z,1.41
2018-03-21T07:27:15.331Z,1.47
2018-03-21T07:28:15.356Z,1.45
2018-03-21T07:29:15.381Z,1.59
2018-03-21T07:30:15.405Z,1.52
2018-03-21T07:31:15.430Z,1.47
2018-03-21T07:32:15.467Z,1.48
2018-03-21T07:33:15.493Z,1.59
2018-03-21T07:34:15.507Z,1.48
2018-03-21T07:35:15.533Z,1.58
2018-03-21T07:36:15.557Z,1.66
2018-03-21T07:37:15.586Z,1.81
2018-03-21T07:38:15.606Z,1.93
2018-03-21T07:39:15.631Z,2.00
2018-03-21T07:40:15.658Z,2.16
2018-03-21T07:41:15.683Z,2.12
2018-03-21T07:42:15.708Z,2.17
2018-03-21T07:43:15.735Z,2.17
2018-03-21T07:44:15.761Z,2.27
2018-03-21T07:45:15.786Z,1.98
2018-03-21T07:46:15.812Z,1.91
2018-03-21T07:47:15.838Z,1.98
2018-03-21T07:48:15.864Z,2.12
2018-03-21T07:49:15.890Z,2.27
2018-03-21T07:50:15.915Z,2.35
2018-03-21T07:51:15.941Z,2.45
2018-03-21T07:52:15.971Z,2.64
2018-03-21T07:53:15.994Z,2.78
2018-03-21T07:54:16.022Z,2.85
2018-03-21T07:55:16.046Z,3.02
2018-03-21T07:56:16.073Z,3.15
2018-03-21T07:57:16.100Z,3.24
2018-03-21T07:58:16.126Z,3.50
2018-03-21T07:59:16.152Z,3.51
2018-03-21T08:00:16.179Z,3.54
2018-03-21T08:01:16.206Z,3.66
2018-03-21T08:02:16.305Z,3.40
2018-03-21T08:03:16.261Z,3.55
2018-03-21T08:04:16.287Z,3.73
2018-03-21T08:05:16.315Z,3.79
2018-03-21T08:06:16.343Z,3.76
2018-03-21T08:07:16.368Z,3.91
2018-03-21T08:08:16.405Z,3.91
2018-03-21T08:09:16.425Z,4.02
2018-03-21T08:10:16.451Z,3.97
2018-03-21T08:11:16.480Z,4.40
2018-03-21T08:12:16.507Z,4.33
2018-03-21T08:13:16.535Z,4.29
2018-03-21T08:14:16.567Z,4.51
2018-03-21T08:15:16.594Z,4.69
2018-03-21T08:16:16.627Z,5.00
2018-03-21T08:17:16.648Z,5.12
2018-03-21T08:18:16.678Z,5.20
2018-03-21T08:19:16.705Z,5.24
2018-03-21T08:20:16.733Z,5.57
2018-03-21T08:21:16.761Z,5.61
2018-03-21T08:22:16.790Z,5.39
2018-03-21T08:23:16.818Z,5.18
2018-03-21T08:24:16.847Z,5.49
2018-03-21T08:25:16.877Z,5.60
2018-03-21T08:26:16.904Z,5.68
2018-03-21T08:27:16.934Z,5.56
2018-03-21T08:28:16.962Z,5.85
2018-03-21T08:29:16.998Z,6.03
2018-03-21T08:30:17.021Z,6.01
2018-03-21T08:31:17.050Z,6.18
2018-03-21T08:32:17.080Z,5.79
2018-03-21T08:33:17.110Z,6.27
2018-03-21T08:34:17.137Z,6.08
2018-03-21T08:35:17.169Z,6.18
2018-03-21T08:36:17.201Z,6.40
2018-03-21T08:37:17.228Z,6.44
2018-03-21T08:38:17.257Z,6.17
2018-03-21T08:39:17.289Z,5.99
2018-03-21T08:40:17.319Z,6.37
2018-03-21T08:41:17.349Z,6.98
2018-03-21T08:42:17.384Z,6.79
2018-03-21T08:43:17.409Z,6.34
2018-03-21T08:44:17.440Z,6.21
2018-03-21T08:45:17.469Z,6.67
2018-03-21T08:46:17.500Z,7.17
2018-03-21T08:47:17.533Z,7.27
2018-03-21T08:48:17.563Z,7.39
2018-03-21T08:49:17.592Z,7.67
2018-03-21T08:50:17.623Z,7.75
2018-03-21T08:51:17.654Z,8.53
2018-03-21T08:52:17.685Z,9.26
2018-03-21T08:53:17.717Z,9.96
2018-03-21T08:54:17.747Z,9.11
2018-03-21T08:55:17.780Z,10.55
2018-03-21T08:56:17.811Z,8.47
2018-03-21T08:57:17.843Z,7.79
2018-03-21T08:58:17.875Z,7.52
2018-03-21T08:59:17.910Z,8.77
2018-03-21T09:00:17.939Z,11.86
2018-03-21T09:01:17.971Z,13.66
2018-03-21T09:02:18.002Z,13.95
2018-03-21T09:03:18.036Z,13.25
2018-03-21T09:04:18.068Z,11.10
2018-03-21T09:05:18.102Z,10.45
2018-03-21T09:06:18.134Z,10.55
2018-03-21T09:07:18.172Z,10.33
2018-03-21T09:08:18.202Z,10.61
2018-03-21T09:09:18.235Z,12.20
2018-03-21T09:10:18.267Z,11.49
2018-03-21T09:11:18.300Z,10.67
2018-03-21T09:12:18.333Z,12.50
2018-03-21T09:13:18.370Z,12.46
2018-03-21T09:14:18.405Z,14.68
2018-03-21T09:15:18.435Z,14.15
2018-03-21T09:16:18.469Z,12.93
2018-03-21T09:17:18.504Z,11.85
2018-03-21T09:18:18.585Z,12.23
2018-03-21T09:19:18.585Z,11.00
2018-03-21T09:20:18.608Z,9.83
2018-03-21T09:21:18.641Z,8.87
2018-03-21T09:22:18.678Z,8.62
2018-03-21T09:23:18.708Z,8.52
2018-03-21T09:24:18.744Z,8.22
2018-03-21T09:25:18.777Z,7.77
2018-03-21T09:26:18.810Z,7.50
2018-03-21T09:27:18.844Z,7.27
2018-03-21T09:28:18.878Z,7.75
2018-03-21T09:29:18.916Z,7.40
2018-03-21T09:30:18.942Z,7.13
2018-03-21T09:31:19.027Z,7.12
2018-03-21T09:32:19.009Z,6.51
2018-03-21T09:33:19.039Z,6.46
2018-03-21T09:34:19.070Z,6.59
2018-03-21T09:35:19.103Z,6.58
2018-03-21T09:36:19.134Z,6.51
2018-03-21T09:37:19.165Z,6.37
2018-03-21T09:38:19.197Z,6.15
2018-03-21T09:39:19.231Z,6.18
2018-03-21T09:40:19.259Z,5.99
2018-03-21T09:41:19.289Z,5.76
2018-03-21T09:42:19.321Z,5.64
2018-03-21T09:43:19.351Z,5.65
2018-03-21T09:44:19.381Z,5.71
2018-03-21T09:45:19.411Z,5.89
2018-03-21T09:46:19.443Z,6.18
2018-03-21T09:47:19.471Z,6.85
2018-03-21T09:48:19.503Z,7.20
2018-03-21T09:49:19.537Z,7.07
2018-03-21T09:50:19.560Z,6.80
2018-03-21T09:51:19.598Z,8.89
2018-03-21T09:52:19.620Z,11.14
2018-03-21T09:53:19.652Z,11.70
2018-03-21T09:54:19.681Z,10.63
2018-03-21T09:55:19.716Z,8.36
2018-03-21T09:56:19.745Z,7.52
2018-03-21T09:57:19.778Z,7.21
2018-03-21T09:58:19.808Z,7.07
2018-03-21T09:59:19.841Z,7.31
2018-03-21T10:00:19.877Z,8.08
2018-03-21T10:01:19.913Z,7.93
2018-03-21T10:02:19.937Z,7.48
2018-03-21T10:03:19.968Z,7.21
2018-03-21T10:04:20.003Z,7.15
2018-03-21T10:05:20.031Z,6.91
2018-03-21T10:06:20.096Z,6.69
2018-03-21T10:07:20.095Z,6.92
2018-03-21T10:08:20.127Z,7.02
2018-03-21T10:09:20.156Z,6.97
2018-03-21T10:10:20.187Z,6.98
2018-03-21T10:11:20.221Z,7.16
2018-03-21T10:12:20.255Z,9.13
2018-03-21T10:13:20.282Z,10.48
2018-03-21T10:14:20.324Z,9.47
2018-03-21T10:15:20.343Z,8.08
2018-03-21T10:16:20.376Z,7.63
2018-03-21T10:17:20.406Z,7.46
2018-03-21T10:18:20.448Z,7.90
2018-03-21T10:19:20.470Z,7.79
2018-03-21T10:20:20.510Z,7.68
2018-03-21T10:21:20.534Z,7.30
2018-03-21T10:22:20.566Z,7.31
2018-03-21T10:23:20.645Z,7.05
2018-03-21T10:24:20.630Z,7.02
2018-03-21T10:25:20.666Z,7.05
2018-03-21T10:26:20.693Z,7.23
2018-03-21T10:27:20.726Z,7.13
2018-03-21T10:28:20.757Z,7.16
2018-03-21T10:29:20.820Z,9.97
2018-03-21T10:30:20.819Z,8.87
2018-03-21T10:31:20.852Z,9.66
2018-03-21T10:32:20.884Z,11.88
2018-03-21T10:33:20.916Z,14.25
2018-03-21T10:34:20.948Z,12.60
2018-03-21T10:35:20.982Z,13.52
2018-03-21T10:36:21.022Z,13.62
2018-03-21T10:37:21.051Z,13.14
2018-03-21T10:38:21.084Z,14.22
2018-03-21T10:39:21.120Z,16.58
2018-03-21T10:40:21.157Z,17.90
2018-03-21T10:41:21.190Z,19.08
2018-03-21T10:42:21.230Z,19.44
2018-03-21T10:43:21.266Z,19.91
2018-03-21T10:44:21.302Z,18.69
2018-03-21T10:45:21.342Z,18.80
2018-03-21T10:46:21.380Z,18.44
2018-03-21T10:47:21.422Z,15.94
2018-03-21T10:48:21.460Z,15.35
2018-03-21T10:49:21.500Z,17.78
2018-03-21T10:50:21.540Z,18.18
2018-03-21T10:51:21.583Z,17.95
2018-03-21T10:52:21.621Z,16.78
2018-03-21T10:53:21.668Z,15.34
2018-03-21T10:54:21.709Z,16.63
2018-03-21T10:55:21.745Z,15.03
2018-03-21T10:56:21.787Z,16.05
2018-03-21T10:57:21.828Z,14.36
2018-03-21T10:58:21.879Z,13.75
2018-03-21T10:59:21.912Z,13.59
2018-03-21T11:00:22.004Z,15.02
2018-03-21T11:01:21.999Z,13.05
2018-03-21T11:02:22.057Z,11.72
2018-03-21T11:03:22.079Z,11.75
2018-03-21T11:04:22.121Z,13.28
2018-03-21T11:05:22.162Z,15.94
2018-03-21T11:06:22.203Z,14.91
2018-03-21T11:07:22.244Z,13.57
2018-03-21T11:08:22.289Z,14.12
2018-03-21T11:09:22.327Z,16.30
2018-03-21T11:10:22.367Z,16.45
2018-03-21T11:11:22.409Z,16.82
2018-03-21T11:12:22.450Z,16.38
2018-03-21T11:13:22.500Z,17.62
2018-03-21T11:14:22.530Z,15.35
2018-03-21T11:15:22.574Z,14.22
2018-03-21T11:16:22.617Z,14.10
2018-03-21T11:17:22.659Z,15.43
2018-03-21T11:18:22.700Z,15.06
2018-03-21T11:19:22.791Z,17.21
2018-03-21T11:20:22.784Z,17.92
2018-03-21T11:21:22.829Z,18.73
2018-03-21T11:22:22.870Z,18.07
2018-03-21T11:23:22.910Z,18.41
2018-03-21T11:24:22.954Z,18.51
2018-03-21T11:25:22.996Z,18.98
2018-03-21T11:26:23.039Z,17.90
2018-03-21T11:27:23.082Z,15.71
2018-03-21T11:28:23.128Z,13.77
2018-03-21T11:29:23.173Z,13.85
2018-03-21T11:30:23.217Z,16.28
2018-03-21T11:31:23.258Z,17.22
2018-03-21T11:32:23.314Z,15.49
2018-03-21T11:33:23.352Z,14.36
2018-03-21T11:34:23.389Z,14.51
2018-03-21T11:35:23.432Z,13.22
2018-03-21T11:36:23.477Z,12.23
2018-03-21T11:37:23.519Z,10.64
2018-03-21T11:38:23.563Z,13.12
2018-03-21T11:39:23.603Z,16.11
2018-03-21T11:40:23.645Z,18.11
2018-03-21T11:41:23.686Z,19.08
2018-03-21T11:42:23.728Z,18.52
2018-03-21T11:43:23.774Z,18.66
2018-03-21T11:44:23.814Z,18.80
2018-03-21T11:45:23.857Z,19.25
2018-03-21T11:46:23.899Z,18.36
2018-03-21T11:47:23.943Z,19.10
2018-03-21T11:48:23.987Z,20.64
2018-03-21T11:49:24.032Z,19.32
2018-03-21T11:50:24.075Z,18.03
2018-03-21T11:51:24.118Z,18.81
2018-03-21T11:52:24.162Z,18.72
2018-03-21T11:53:24.207Z,17.36
2018-03-21T11:54:24.250Z,16.23
2018-03-21T11:55:24.295Z,16.70
2018-03-21T11:56:24.380Z,18.76
2018-03-21T11:57:24.384Z,20.66
2018-03-21T11:58:24.429Z,21.31
2018-03-21T11:59:24.476Z,21.82
2018-03-21T12:00:24.521Z,22.03
2018-03-21T12:01:24.565Z,22.28
2018-03-21T12:02:24.611Z,23.00
2018-03-21T12:03:24.658Z,23.42
2018-03-21T12:04:24.705Z,22.67
2018-03-21T12:05:24.751Z,18.75
2018-03-21T12:06:24.797Z,19.26
2018-03-21T12:07:24.843Z,20.99
2018-03-21T12:08:24.890Z,18.27
2018-03-21T12:09:24.940Z,15.41
2018-03-21T12:10:24.991Z,15.49
2018-03-21T12:11:25.032Z,16.46
2018-03-21T12:12:25.074Z,16.24
2018-03-21T12:13:25.120Z,14.65
2018-03-21T12:14:25.164Z,13.89
2018-03-21T12:15:25.210Z,12.46
2018-03-21T12:16:25.254Z,11.14
2018-03-21T12:17:25.299Z,9.43
2018-03-21T12:18:25.341Z,9.21
2018-03-21T12:19:25.383Z,9.14
2018-03-21T12:20:25.426Z,9.08
2018-03-21T12:21:25.467Z,10.25
2018-03-21T12:22:25.510Z,11.22
2018-03-21T12:23:25.549Z,13.14
2018-03-21T12:24:25.591Z,14.22
2018-03-21T12:25:25.631Z,16.17
2018-03-21T12:26:25.672Z,16.24
2018-03-21T12:27:25.712Z,14.61
2018-03-21T12:28:25.754Z,15.27
2018-03-21T12:29:25.794Z,15.21
2018-03-21T12:30:25.837Z,14.86
2018-03-21T12:31:25.879Z,12.92
2018-03-21T12:32:25.922Z,12.20
2018-03-21T12:33:25.965Z,11.79
2018-03-21T12:34:26.004Z,11.79
2018-03-21T12:35:26.044Z,11.29
2018-03-21T12:36:26.085Z,10.91
2018-03-21T12:37:26.127Z,11.18
2018-03-21T12:38:26.168Z,10.55
2018-03-21T12:39:26.210Z,10.32
2018-03-21T12:40:26.247Z,10.73
2018-03-21T12:41:26.288Z,10.81
2018-03-21T12:42:26.324Z,11.02
2018-03-21T12:43:26.364Z,11.27
2018-03-21T12:44:26.430Z,11.94
2018-03-21T12:45:26.442Z,11.94
2018-03-21T12:46:26.479Z,11.75
2018-03-21T12:47:26.518Z,11.27
2018-03-21T12:48:26.555Z,11.99
2018-03-21T12:49:26.591Z,12.27
2018-03-21T12:50:26.629Z,11.10
2018-03-21T12:51:26.666Z,11.46
2018-03-21T12:52:26.704Z,12.65
2018-03-21T12:53:26.755Z,15.25
2018-03-21T12:54:26.779Z,17.36
2018-03-21T12:55:26.818Z,17.55
2018-03-21T12:56:26.912Z,17.48
2018-03-21T12:57:26.893Z,19.00
2018-03-21T12:58:26.931Z,19.40
2018-03-21T12:59:26.970Z,19.84
2018-03-21T13:00:27.010Z,20.24
2018-03-21T13:01:27.050Z,19.78